createdAt,value
2023-05-19T00:02:06.051Z,5.35
2023-05-19T00:04:33.814Z,5.63
2023-05-19T00:07:01.477Z,5.80
2023-05-19T00:09:28.665Z,4.93
2023-05-19T00:11:56.918Z,5.80
2023-05-19T00:14:24.151Z,5.63
2023-05-19T00:16:51.303Z,5.47
2023-05-19T00:19:19.059Z,5.57
2023-05-19T00:21:45.921Z,4.95
2023-05-19T00:24:13.459Z,5.30
2023-05-19T00:26:40.353Z,5.70
2023-05-19T00:29:07.224Z,4.85
2023-05-19T00:31:34.681Z,5.57
2023-05-19T00:34:01.864Z,5.40
2023-05-19T00:36:28.723Z,5.40
2023-05-19T00:38:55.656Z,5.90
2023-05-19T00:41:22.954Z,5.30
2023-05-19T00:43:51.219Z,4.78
2023-05-19T00:46:19.680Z,5.18
2023-05-19T00:48:46.627Z,5.68
2023-05-19T00:51:17.176Z,4.82
2023-05-19T00:53:49.415Z,5.50
2023-05-19T00:56:17.129Z,4.85
2023-05-19T00:58:44.420Z,5.15
2023-05-19T01:05:14.925Z,5.45
2023-05-19T01:07:41.925Z,5.80
2023-05-19T01:10:09.738Z,4.97
2023-05-19T01:12:37.069Z,4.95
2023-05-19T01:15:05.548Z,5.30
2023-05-19T01:17:49.624Z,5.20
2023-05-19T01:20:52.760Z,5.60
2023-05-19T01:23:38.889Z,5.45
2023-05-19T01:26:14.448Z,4.90
2023-05-19T01:29:28.168Z,5.25
2023-05-19T01:31:59.543Z,5.45
2023-05-19T01:34:27.786Z,5.57
2023-05-19T01:36:55.981Z,5.82
2023-05-19T01:39:23.798Z,5.50
2023-05-19T01:41:52.472Z,5.38
2023-05-19T01:44:20.192Z,5.13
2023-05-19T01:46:47.685Z,5.30
2023-05-19T01:49:14.638Z,5.38
2023-05-19T01:51:41.837Z,5.47
2023-05-19T01:54:08.746Z,5.63
2023-05-19T01:57:00.344Z,5.43
2023-05-19T02:00:05.903Z,4.70
2023-05-19T02:03:14.608Z,5.60
2023-05-19T02:05:50.992Z,5.28
2023-05-19T02:08:20.811Z,5.45
2023-05-19T02:10:56.309Z,5.57
2023-05-19T02:13:27.723Z,5.93
2023-05-19T02:15:58.477Z,5.60
2023-05-19T02:18:25.571Z,5.80
2023-05-19T02:20:52.508Z,5.28
2023-05-19T02:23:19.324Z,5.43
2023-05-19T02:25:46.152Z,4.90
2023-05-19T02:28:12.998Z,5.55
2023-05-19T02:30:40.081Z,5.53
2023-05-19T02:33:07.757Z,5.45
2023-05-19T02:35:34.680Z,5.80
2023-05-19T02:38:01.697Z,5.07
2023-05-19T02:40:28.528Z,5.30
2023-05-19T02:42:55.279Z,5.53
2023-05-19T02:45:22.110Z,5.38
2023-05-19T02:47:48.877Z,5.32
2023-05-19T02:50:15.815Z,5.38
2023-05-19T02:52:42.631Z,5.50
2023-05-19T02:55:09.666Z,5.68
2023-05-19T02:57:36.706Z,5.20
2023-05-19T03:00:03.825Z,5.50
2023-05-19T03:02:30.920Z,5.60
2023-05-19T03:04:58.068Z,5.72
2023-05-19T03:07:25.446Z,5.88
2023-05-19T03:09:52.725Z,5.45
2023-05-19T03:12:19.547Z,6.05
2023-05-19T03:14:46.579Z,5.32
2023-05-19T03:17:13.529Z,5.05
2023-05-19T03:19:40.362Z,5.20
2023-05-19T03:22:07.230Z,5.13
2023-05-19T03:24:34.044Z,5.57
2023-05-19T03:27:00.875Z,5.45
2023-05-19T03:29:27.703Z,5.47
2023-05-19T03:31:54.489Z,5.90
2023-05-19T03:34:22.610Z,5.40
2023-05-19T03:36:50.479Z,5.20
2023-05-19T03:39:17.415Z,5.13
2023-05-19T03:41:44.238Z,5.25
2023-05-19T03:44:11.039Z,5.60
2023-05-19T03:46:37.887Z,5.18
2023-05-19T03:49:04.697Z,4.90
2023-05-19T03:51:31.435Z,5.47
2023-05-19T03:53:58.265Z,5.40
2023-05-19T03:56:27.622Z,5.50
2023-05-19T03:58:55.015Z,5.38
2023-05-19T04:01:21.878Z,5.75
2023-05-19T04:03:48.632Z,5.30
2023-05-19T04:06:15.485Z,5.60
2023-05-19T04:08:44.421Z,5.50
2023-05-19T04:11:11.425Z,5.75
2023-05-19T04:13:38.240Z,5.40
2023-05-19T04:16:05.556Z,5.70
2023-05-19T04:18:32.373Z,5.95
2023-05-19T04:20:59.210Z,5.55
2023-05-19T04:23:26.014Z,5.70
2023-05-19T04:25:54.282Z,5.20
2023-05-19T04:28:21.844Z,5.53
2023-05-19T04:30:48.689Z,6.15
2023-05-19T04:33:15.496Z,5.93
2023-05-19T04:35:44.002Z,5.35
2023-05-19T04:38:12.111Z,6.22
2023-05-19T04:40:40.600Z,5.28
2023-05-19T04:43:07.565Z,5.30
2023-05-19T04:45:34.448Z,6.35
2023-05-19T04:48:02.156Z,6.47
2023-05-19T04:50:31.288Z,5.53
2023-05-19T04:52:59.401Z,6.75
2023-05-19T04:55:26.413Z,6.38
2023-05-19T04:57:53.276Z,6.10
2023-05-19T05:00:21.046Z,6.10
2023-05-19T05:02:49.358Z,6.47
2023-05-19T05:05:16.362Z,6.15
2023-05-19T05:07:43.396Z,6.20
2023-05-19T05:10:10.978Z,6.40
2023-05-19T05:12:38.061Z,6.55
2023-05-19T05:15:07.026Z,6.03
2023-05-19T05:17:35.569Z,6.10
2023-05-19T05:20:04.660Z,5.82
2023-05-19T05:22:31.785Z,6.40
2023-05-19T05:24:58.796Z,6.22
2023-05-19T05:27:26.275Z,6.20
2023-05-19T05:29:53.367Z,6.97
2023-05-19T05:32:20.200Z,5.80
2023-05-19T05:34:47.154Z,6.57
2023-05-19T05:37:15.322Z,6.45
2023-05-19T05:39:42.311Z,6.75
2023-05-19T05:42:12.495Z,6.07
2023-05-19T05:44:39.296Z,6.43
2023-05-19T05:47:06.647Z,5.90
2023-05-19T05:49:36.728Z,6.07
2023-05-19T05:52:06.560Z,6.03
2023-05-19T05:54:34.087Z,6.10
2023-05-19T05:57:02.655Z,5.60
2023-05-19T05:59:29.570Z,5.63
2023-05-19T06:01:56.531Z,4.60
2023-05-19T06:04:23.367Z,4.70
2023-05-19T06:06:50.154Z,5.07
2023-05-19T06:09:17.225Z,5.40
2023-05-19T06:11:44.273Z,5.40
2023-05-19T06:14:11.027Z,5.72
2023-05-19T06:16:37.852Z,6.35
2023-05-19T06:19:04.858Z,6.15
2023-05-19T06:21:31.646Z,6.68
2023-05-19T06:23:58.443Z,6.93
2023-05-19T06:26:25.310Z,6.72
2023-05-19T06:28:52.406Z,7.15
2023-05-19T06:31:19.215Z,6.75
2023-05-19T06:33:45.993Z,5.95
2023-05-19T06:36:14.002Z,6.38
2023-05-19T06:38:40.830Z,6.30
2023-05-19T06:41:07.905Z,5.85
2023-05-19T06:43:34.748Z,5.97
2023-05-19T06:46:01.768Z,6.22
2023-05-19T06:48:28.594Z,7.25
2023-05-19T06:51:01.165Z,7.13
2023-05-19T06:53:27.986Z,7.55
2023-05-19T06:55:59.954Z,7.78
2023-05-19T06:58:27.890Z,8.25
2023-05-19T07:00:54.729Z,8.20
2023-05-19T07:03:21.522Z,7.88
2023-05-19T07:05:48.506Z,8.38
2023-05-19T07:08:15.374Z,8.40
2023-05-19T07:10:42.137Z,8.93
2023-05-19T07:13:08.974Z,8.63
2023-05-19T07:15:35.761Z,8.65
2023-05-19T07:18:02.614Z,7.65
2023-05-19T07:20:29.534Z,8.38
2023-05-19T07:22:56.326Z,8.63
2023-05-19T07:25:23.246Z,8.65
2023-05-19T07:27:50.009Z,8.32
2023-05-19T07:30:16.890Z,8.07
2023-05-19T07:32:43.693Z,9.23
2023-05-19T07:35:10.785Z,8.60
2023-05-19T07:37:38.022Z,9.13
2023-05-19T07:40:06.841Z,7.88
2023-05-19T07:42:35.161Z,8.70
2023-05-19T07:45:03.447Z,8.73
2023-05-19T07:47:31.065Z,8.10
2023-05-19T07:49:57.925Z,7.65
2023-05-19T07:52:24.698Z,7.68
2023-05-19T07:54:51.560Z,8.07
2023-05-19T07:57:19.138Z,7.85
2023-05-19T07:59:46.079Z,7.70
2023-05-19T08:02:12.976Z,7.43
2023-05-19T08:04:39.953Z,7.78
2023-05-19T08:07:06.859Z,7.35
2023-05-19T08:09:33.590Z,6.38
2023-05-19T08:12:01.738Z,6.90
2023-05-19T08:14:28.531Z,6.22
2023-05-19T08:16:55.322Z,6.85
2023-05-19T08:19:22.276Z,5.88
2023-05-19T08:21:49.768Z,5.93
2023-05-19T08:24:16.723Z,6.30
2023-05-19T08:26:44.261Z,6.03
2023-05-19T08:29:11.107Z,5.70
2023-05-19T08:31:38.010Z,5.32
2023-05-19T08:34:04.857Z,5.80
2023-05-19T08:36:31.743Z,5.95
2023-05-19T08:38:58.528Z,6.05
2023-05-19T08:41:26.463Z,5.35
2023-05-19T08:43:53.355Z,5.75
2023-05-19T08:46:22.123Z,5.53
2023-05-19T08:48:49.790Z,5.53
2023-05-19T08:52:05.567Z,5.13
2023-05-19T08:54:47.050Z,5.85
2023-05-19T08:57:14.327Z,5.10
2023-05-19T08:59:43.341Z,5.07
2023-05-19T09:02:13.120Z,4.53
2023-05-19T09:04:41.709Z,4.90
2023-05-19T09:07:09.470Z,5.03
2023-05-19T09:09:36.413Z,5.43
2023-05-19T09:12:04.152Z,5.20
2023-05-19T09:14:31.251Z,5.03
2023-05-19T09:16:58.117Z,5.20
2023-05-19T09:19:29.120Z,5.38
2023-05-19T09:22:06.675Z,5.78
2023-05-19T09:24:34.428Z,5.25
2023-05-19T09:27:02.356Z,5.97
2023-05-19T09:29:29.270Z,6.00
2023-05-19T09:32:00.986Z,6.05
2023-05-19T09:34:28.089Z,6.38
2023-05-19T09:36:54.904Z,6.13
2023-05-19T09:39:23.451Z,6.95
2023-05-19T09:41:59.506Z,6.53
2023-05-19T09:44:30.412Z,6.43
2023-05-19T09:46:58.752Z,6.72
2023-05-19T09:49:30.376Z,6.05
2023-05-19T09:51:58.722Z,7.20
2023-05-19T09:54:27.551Z,7.13
2023-05-19T09:56:58.911Z,7.13
2023-05-19T09:59:26.503Z,6.18
2023-05-19T10:01:57.663Z,7.35
2023-05-19T10:04:27.079Z,6.95
2023-05-19T10:06:55.107Z,6.20
2023-05-19T10:09:27.221Z,6.60
2023-05-19T10:11:55.592Z,5.47
2023-05-19T10:14:26.220Z,6.30
2023-05-19T10:16:55.139Z,6.43
2023-05-19T10:19:24.004Z,5.80
2023-05-19T10:21:52.305Z,5.10
2023-05-19T10:24:19.767Z,7.22
2023-05-19T10:27:01.663Z,5.85
2023-05-19T10:29:51.089Z,5.78
2023-05-19T10:32:24.107Z,5.10
2023-05-19T10:34:59.871Z,6.15
2023-05-19T10:37:57.661Z,6.00
2023-05-19T10:40:27.642Z,5.80
2023-05-19T10:43:08.390Z,5.93
2023-05-19T10:45:48.280Z,5.20
2023-05-19T10:48:16.972Z,5.10
2023-05-19T10:50:46.010Z,5.40
2023-05-19T10:53:22.213Z,5.07
2023-05-19T10:55:56.186Z,5.15
2023-05-19T10:58:44.899Z,4.53
2023-05-19T11:01:17.068Z,4.88
2023-05-19T11:03:49.172Z,4.60
2023-05-19T11:06:19.027Z,5.28
2023-05-19T11:08:47.924Z,5.53
2023-05-19T11:11:18.974Z,4.55
2023-05-19T11:13:54.025Z,5.28
2023-05-19T11:16:32.450Z,4.60
2023-05-19T11:18:59.955Z,4.35
2023-05-19T11:21:43.841Z,5.65
2023-05-19T11:24:10.622Z,5.10
2023-05-19T11:26:44.750Z,4.97
2023-05-19T11:29:12.065Z,4.45
2023-05-19T11:31:40.013Z,4.47
2023-05-19T11:34:07.573Z,4.95
2023-05-19T11:36:36.636Z,4.20
2023-05-19T11:39:04.351Z,4.50
2023-05-19T11:41:31.184Z,4.28
2023-05-19T11:43:57.983Z,4.80
2023-05-19T11:46:25.400Z,4.85
2023-05-19T11:48:54.258Z,4.28
2023-05-19T11:51:21.930Z,4.50
2023-05-19T11:53:50.171Z,4.82
2023-05-19T11:56:17.009Z,5.05
2023-05-19T11:58:43.784Z,5.68
2023-05-19T12:01:11.294Z,5.38
2023-05-19T12:03:38.373Z,4.90
2023-05-19T12:06:08.648Z,4.32
2023-05-19T12:08:36.543Z,4.43
2023-05-19T12:11:03.453Z,3.83
2023-05-19T12:13:30.407Z,10.25
2023-05-19T12:16:01.325Z,4.18
2023-05-19T12:18:34.140Z,6.70
2023-05-19T12:21:01.073Z,4.07
2023-05-19T12:23:30.840Z,4.05
2023-05-19T12:25:59.237Z,4.45
2023-05-19T12:28:26.071Z,3.60
2023-05-19T12:30:53.752Z,4.13
2023-05-19T12:33:22.926Z,3.78
2023-05-19T12:35:50.190Z,3.90
2023-05-19T12:38:17.294Z,3.63
2023-05-19T12:40:44.939Z,3.40
2023-05-19T12:43:25.290Z,3.60
2023-05-19T12:45:52.641Z,4.00
2023-05-19T12:48:22.885Z,3.47
2023-05-19T12:50:54.116Z,3.70
2023-05-19T12:53:20.858Z,3.70
2023-05-19T12:55:47.687Z,3.53
2023-05-19T12:58:16.109Z,3.47
2023-05-19T13:00:45.607Z,3.42
2023-05-19T13:03:19.703Z,3.63
2023-05-19T13:05:48.687Z,3.80
2023-05-19T13:08:24.203Z,3.60
2023-05-19T13:10:51.044Z,3.45
2023-05-19T13:13:18.205Z,3.60
2023-05-19T13:15:48.882Z,3.65
2023-05-19T13:18:16.059Z,4.25
2023-05-19T13:20:44.918Z,3.75
2023-05-19T13:23:12.309Z,3.55
2023-05-19T13:25:39.604Z,3.72
2023-05-19T13:28:06.840Z,3.60
2023-05-19T13:30:34.941Z,3.25
2023-05-19T13:33:02.401Z,3.38
2023-05-19T13:35:29.587Z,3.20
2023-05-19T13:37:56.402Z,3.75
2023-05-19T13:40:24.095Z,3.47
2023-05-19T13:42:50.988Z,3.40
2023-05-19T13:45:18.467Z,3.50
2023-05-19T13:47:45.298Z,3.80
2023-05-19T13:50:12.575Z,3.75
2023-05-19T13:52:39.550Z,3.55
2023-05-19T13:55:07.477Z,3.28
2023-05-19T13:57:34.304Z,3.47
2023-05-19T14:00:03.889Z,3.40
2023-05-19T14:02:31.245Z,3.15
2023-05-19T14:04:58.442Z,3.72
2023-05-19T14:07:25.811Z,3.50
2023-05-19T14:09:53.164Z,3.65
2023-05-19T14:12:23.201Z,3.47
2023-05-19T14:14:52.378Z,3.40
2023-05-19T14:17:19.210Z,3.42
2023-05-19T14:19:46.089Z,3.20
2023-05-19T14:22:13.545Z,3.53
2023-05-19T14:24:41.634Z,3.63
2023-05-19T14:27:08.792Z,3.28
2023-05-19T14:29:35.771Z,3.45
2023-05-19T14:32:03.440Z,3.72
2023-05-19T14:34:30.550Z,3.45
2023-05-19T14:36:57.358Z,3.45
2023-05-19T14:39:24.100Z,3.50
2023-05-19T14:41:52.105Z,3.78
2023-05-19T14:44:19.093Z,3.60
2023-05-19T14:46:45.989Z,3.40
2023-05-19T14:49:12.784Z,3.53
2023-05-19T14:51:39.574Z,3.75
2023-05-19T14:54:06.418Z,3.40
2023-05-19T14:56:33.199Z,3.30
2023-05-19T14:59:00.098Z,3.40
2023-05-19T15:01:26.949Z,4.47
2023-05-19T15:03:54.168Z,3.40
2023-05-19T15:06:21.041Z,4.10
2023-05-19T15:08:47.920Z,3.67
2023-05-19T15:11:14.727Z,3.67
2023-05-19T15:13:41.511Z,3.88
2023-05-19T15:18:41.066Z,3.20
2023-05-19T15:21:07.944Z,3.28
2023-05-19T15:23:34.717Z,3.63
2023-05-19T15:26:01.584Z,3.50
2023-05-19T15:28:28.484Z,3.80
2023-05-19T15:30:55.348Z,3.25
2023-05-19T15:33:22.196Z,3.03
2023-05-19T15:35:51.802Z,3.40
2023-05-19T15:38:21.509Z,3.83
2023-05-19T15:40:48.354Z,3.25
2023-05-19T15:43:15.240Z,3.80
2023-05-19T15:45:42.073Z,3.22
2023-05-19T15:48:08.950Z,3.30
2023-05-19T15:50:36.376Z,3.30
2023-05-19T15:53:03.656Z,3.95
2023-05-19T15:55:30.557Z,3.70
2023-05-19T15:57:57.369Z,3.83
2023-05-19T16:00:24.239Z,3.40
2023-05-19T16:02:51.269Z,3.60
2023-05-19T16:05:18.418Z,3.17
2023-05-19T16:07:45.300Z,3.40
2023-05-19T16:10:12.230Z,4.10
2023-05-19T16:12:39.057Z,3.40
2023-05-19T16:15:06.332Z,3.60
2023-05-19T16:17:33.308Z,3.42
2023-05-19T16:20:00.196Z,3.70
2023-05-19T16:22:27.357Z,3.20
2023-05-19T16:24:54.154Z,3.72
2023-05-19T16:27:20.994Z,3.63
2023-05-19T16:29:47.858Z,3.50
2023-05-19T16:32:14.842Z,3.40
2023-05-19T16:34:41.625Z,3.78
2023-05-19T16:37:08.529Z,3.83
2023-05-19T16:39:38.441Z,3.83
2023-05-19T16:42:05.684Z,3.20
2023-05-19T16:44:32.474Z,3.75
2023-05-19T16:46:59.292Z,3.42
2023-05-19T16:49:26.106Z,3.50
2023-05-19T16:51:53.267Z,3.30
2023-05-19T16:54:21.331Z,3.60
2023-05-19T16:56:48.203Z,3.80
2023-05-19T16:59:15.025Z,3.75
2023-05-19T17:01:42.070Z,3.63
2023-05-19T17:04:09.180Z,3.42
2023-05-19T17:06:36.055Z,3.47
2023-05-19T17:09:03.107Z,3.63
2023-05-19T17:11:29.924Z,3.10
2023-05-19T17:13:56.804Z,3.45
2023-05-19T17:16:24.088Z,3.25
2023-05-19T17:18:51.615Z,3.30
2023-05-19T17:21:18.487Z,3.45
2023-05-19T17:23:45.672Z,3.50
2023-05-19T17:26:12.482Z,3.75
2023-05-19T17:28:39.328Z,3.85
2023-05-19T17:31:12.522Z,3.00
2023-05-19T17:33:39.792Z,3.30
2023-05-19T17:36:07.385Z,3.45
2023-05-19T17:38:34.411Z,3.60
2023-05-19T17:41:02.414Z,3.50
2023-05-19T17:43:29.378Z,4.10
2023-05-19T17:45:57.630Z,3.95
2023-05-19T17:48:25.976Z,4.40
2023-05-19T17:50:52.774Z,3.90
2023-05-19T17:53:19.826Z,4.15
2023-05-19T17:55:51.362Z,3.55
2023-05-19T17:58:19.282Z,4.00
2023-05-19T18:00:46.199Z,3.78
2023-05-19T18:03:13.384Z,3.75
2023-05-19T18:05:40.617Z,3.78
2023-05-19T18:08:09.535Z,3.72
2023-05-19T18:10:38.571Z,3.75
2023-05-19T18:13:06.430Z,4.25
2023-05-19T18:15:33.289Z,3.70
2023-05-19T18:18:00.806Z,4.30
2023-05-19T18:20:27.733Z,3.65
2023-05-19T18:22:54.492Z,4.07
2023-05-19T18:25:21.221Z,3.72
2023-05-19T18:27:48.028Z,3.92
2023-05-19T18:30:14.820Z,4.18
2023-05-19T18:32:41.813Z,4.05
2023-05-19T18:35:09.610Z,4.18
2023-05-19T18:37:36.457Z,4.10
2023-05-19T18:40:03.274Z,4.32
2023-05-19T18:42:30.133Z,3.75
2023-05-19T18:44:57.070Z,4.38
2023-05-19T18:47:23.880Z,4.32
2023-05-19T18:49:50.730Z,3.72
2023-05-19T18:52:19.161Z,3.80
2023-05-19T18:54:47.188Z,4.25
2023-05-19T18:57:17.035Z,4.30
2023-05-19T18:59:43.812Z,4.13
2023-05-19T19:02:10.572Z,4.03
2023-05-19T19:04:37.335Z,4.15
2023-05-19T19:07:05.884Z,3.90
2023-05-19T19:09:32.654Z,4.45
2023-05-19T19:11:59.389Z,4.82
2023-05-19T19:14:26.122Z,4.82
2023-05-19T19:16:52.961Z,4.70
2023-05-19T19:19:19.721Z,4.65
2023-05-19T19:21:46.650Z,4.65
2023-05-19T19:24:13.844Z,4.80
2023-05-19T19:26:40.784Z,4.93
2023-05-19T19:29:07.539Z,4.40
2023-05-19T19:31:34.305Z,4.22
2023-05-19T19:34:04.007Z,4.88
2023-05-19T19:36:31.968Z,4.60
2023-05-19T19:38:58.928Z,4.97
2023-05-19T19:41:26.874Z,4.80
2023-05-19T19:43:53.869Z,4.93
2023-05-19T19:46:20.624Z,4.45
2023-05-19T19:48:47.449Z,4.80
2023-05-19T19:51:14.215Z,4.47
2023-05-19T19:53:41.040Z,4.57
2023-05-19T19:56:07.857Z,4.82
2023-05-19T19:58:35.222Z,4.80
2023-05-19T20:01:03.374Z,4.25
2023-05-19T20:03:30.376Z,4.50
2023-05-19T20:05:57.270Z,4.50
2023-05-19T20:08:25.186Z,4.70
2023-05-19T20:10:52.503Z,4.45
2023-05-19T20:13:20.104Z,5.00
2023-05-19T20:15:47.227Z,4.65
2023-05-19T20:18:14.037Z,4.70
2023-05-19T20:20:41.160Z,4.35
2023-05-19T20:23:08.668Z,4.00
2023-05-19T20:25:54.466Z,4.93
2023-05-19T20:28:28.606Z,4.63
2023-05-19T20:30:55.361Z,4.53
2023-05-19T20:33:22.191Z,4.10
2023-05-19T20:35:48.960Z,4.60
2023-05-19T20:38:15.679Z,4.22
2023-05-19T20:40:42.462Z,3.88
2023-05-19T20:43:09.567Z,4.65
2023-05-19T20:45:36.724Z,4.53
2023-05-19T20:48:03.936Z,5.20
2023-05-19T20:50:30.904Z,5.07
2023-05-19T20:52:57.777Z,4.97
2023-05-19T20:55:24.613Z,4.90
2023-05-19T20:57:51.399Z,5.00
2023-05-19T21:00:18.472Z,4.82
2023-05-19T21:02:45.297Z,4.70
2023-05-19T21:05:12.311Z,4.53
2023-05-19T21:07:39.080Z,4.70
2023-05-19T21:10:06.649Z,4.70
2023-05-19T21:12:34.451Z,4.72
2023-05-19T21:15:02.129Z,4.50
2023-05-19T21:17:29.132Z,5.32
2023-05-19T21:19:59.546Z,4.95
2023-05-19T21:22:27.205Z,4.53
2023-05-19T21:24:54.880Z,4.88
2023-05-19T21:27:21.693Z,4.60
2023-05-19T21:29:53.230Z,4.45
2023-05-19T21:32:21.040Z,4.18
2023-05-19T21:34:47.876Z,4.75
2023-05-19T21:37:16.474Z,4.65
2023-05-19T21:39:43.854Z,5.43
2023-05-19T21:42:10.740Z,4.70
2023-05-19T21:44:37.643Z,4.70
2023-05-19T21:47:04.521Z,4.72
2023-05-19T21:49:31.462Z,5.00
2023-05-19T21:51:58.573Z,4.82
2023-05-19T21:54:25.455Z,4.70
2023-05-19T21:56:52.225Z,4.65
2023-05-19T21:59:23.238Z,5.00
2023-05-19T22:01:50.334Z,4.50
2023-05-19T22:04:18.748Z,4.60
2023-05-19T22:06:45.771Z,5.13
2023-05-19T22:09:12.955Z,4.70
2023-05-19T22:11:40.084Z,4.88
2023-05-19T22:14:07.160Z,4.22
2023-05-19T22:16:34.201Z,4.43
2023-05-19T22:19:01.104Z,4.57
2023-05-19T22:21:28.037Z,4.57
2023-05-19T22:23:54.947Z,5.10
2023-05-19T22:26:22.267Z,4.75
2023-05-19T22:28:50.392Z,5.05
2023-05-19T22:31:17.785Z,4.55
2023-05-19T22:33:44.936Z,4.50
2023-05-19T22:36:11.815Z,4.28
2023-05-19T22:38:38.571Z,4.70
2023-05-19T22:41:05.618Z,4.75
2023-05-19T22:43:32.471Z,4.88
2023-05-19T22:45:59.345Z,4.68
2023-05-19T22:48:26.341Z,5.07
2023-05-19T22:50:53.241Z,5.32
2023-05-19T22:53:20.012Z,4.80
2023-05-19T22:55:46.992Z,4.90
2023-05-19T22:58:13.765Z,5.18
2023-05-19T23:00:40.660Z,4.93
2023-05-19T23:03:07.441Z,5.32
2023-05-19T23:05:34.656Z,5.90
2023-05-19T23:08:01.688Z,5.82
2023-05-19T23:10:28.449Z,5.22
2023-05-19T23:12:55.359Z,5.15
2023-05-19T23:15:22.144Z,6.00
2023-05-19T23:17:48.992Z,5.57
2023-05-19T23:20:15.877Z,5.75
2023-05-19T23:22:42.590Z,5.53
2023-05-19T23:25:09.629Z,5.47
2023-05-19T23:27:36.672Z,5.47
2023-05-19T23:30:03.763Z,5.45
2023-05-19T23:32:31.051Z,5.82
2023-05-19T23:34:57.904Z,5.05
2023-05-19T23:37:24.761Z,5.53
2023-05-19T23:39:51.573Z,7.30
2023-05-19T23:42:18.512Z,5.57
2023-05-19T23:44:45.762Z,5.20
2023-05-19T23:47:12.560Z,5.50
2023-05-19T23:49:39.414Z,5.55
2023-05-19T23:52:06.521Z,5.88
2023-05-19T23:54:33.288Z,5.75
2023-05-19T23:57:02.310Z,5.43
2023-05-19T23:59:29.079Z,5.43
